Time;durP1;ratioP1;P1;durP2;ratioP2;P2;SDS_P1;SDS_P2;PMS_P1;PMS_P2;Temp;Humidity;BMP_temperature;BMP_pressure;BME280_temperature;BME280_humidity;BME280_pressure;Samples;Min_cycle;Max_cycle;Signal;HPM_P1;HPM_P2
2022/10/24 00:01:50;;;;;;;8.30;2.75;;;;;;;;;;5073283;28;20021;-75
2022/10/24 00:04:16;;;;;;;7.63;2.58;;;;;;;;;;5073456;28;20027;-74
2022/10/24 00:06:42;;;;;;;11.75;2.80;;;;;;;;;;5073509;28;20381;-75
2022/10/24 00:09:08;;;;;;;9.55;2.65;;;;;;;;;;5073144;28;20359;-75
2022/10/24 00:11:34;;;;;;;7.35;2.42;;;;;;;;;;5072911;28;20085;-74
2022/10/24 00:14:00;;;;;;;14.50;3.05;;;;;;;;;;5073182;28;20032;-74
2022/10/24 00:16:27;;;;;;;12.52;2.50;;;;;;;;;;5073104;28;20032;-74
2022/10/24 00:18:53;;;;;;;9.25;2.83;;;;;;;;;;5071721;28;20021;-74
2022/10/24 00:21:19;;;;;;;14.18;3.08;;;;;;;;;;5073088;28;20465;-74
2022/10/24 00:23:45;;;;;;;12.23;2.72;;;;;;;;;;5073126;28;20031;-74
2022/10/24 00:26:11;;;;;;;4.75;2.70;;;;;;;;;;5072486;28;20020;-75
2022/10/24 00:28:38;;;;;;;10.25;2.70;;;;;;;;;;5073085;28;20024;-74
2022/10/24 00:31:05;;;;;;;11.00;3.10;;;;;;;;;;5072884;28;20037;-74
2022/10/24 00:33:31;;;;;;;13.82;2.70;;;;;;;;;;5072997;28;20085;-75
2022/10/24 00:35:57;;;;;;;9.70;2.58;;;;;;;;;;5072757;28;20052;-75
2022/10/24 00:38:23;;;;;;;6.55;2.78;;;;;;;;;;5073014;28;20071;-75
2022/10/24 00:40:49;;;;;;;15.07;2.80;;;;;;;;;;5072759;28;20461;-74
2022/10/24 00:43:16;;;;;;;10.35;2.85;;;;;;;;;;5072803;28;20028;-75
2022/10/24 00:45:46;;;;;;;10.70;3.03;;;;;;;;;;5072652;28;20031;-75
2022/10/24 00:48:21;;;;;;;12.10;3.22;;;;;;;;;;5073105;28;20389;-75
2022/10/24 00:50:48;;;;;;;10.70;2.85;;;;;;;;;;5072855;28;20024;-74
2022/10/24 00:53:14;;;;;;;13.27;2.80;;;;;;;;;;5072697;28;20032;-74
2022/10/24 00:55:40;;;;;;;8.73;2.55;;;;;;;;;;5071226;28;20111;-74
2022/10/24 00:58:07;;;;;;;6.68;2.30;;;;;;;;;;5073446;28;20111;-75
2022/10/24 01:00:34;;;;;;;11.88;2.70;;;;;;;;;;5072718;28;20020;-74
2022/10/24 01:03:00;;;;;;;11.30;2.65;;;;;;;;;;5072639;28;20029;-74
2022/10/24 01:05:29;;;;;;;12.05;3.22;;;;;;;;;;5070970;28;20024;-74
2022/10/24 01:08:00;;;;;;;14.00;3.13;;;;;;;;;;5072627;28;20025;-73
2022/10/24 01:10:37;;;;;;;8.52;3.00;;;;;;;;;;5072682;28;20051;-73
2022/10/24 01:13:03;;;;;;;8.80;2.50;;;;;;;;;;5072125;28;20036;-74
2022/10/24 01:15:50;;;;;;;11.75;2.55;;;;;;;;;;5072038;28;20035;-75
2022/10/24 01:18:24;;;;;;;8.70;2.55;;;;;;;;;;5072163;28;20484;-76
2022/10/24 01:20:50;;;;;;;5.87;2.87;;;;;;;;;;5072064;28;20024;-74
2022/10/24 01:23:34;;;;;;;11.00;2.90;;;;;;;;;;5072626;28;20267;-74
2022/10/24 01:26:00;;;;;;;13.20;2.85;;;;;;;;;;5072693;28;20374;-74
2022/10/24 01:28:40;;;;;;;11.52;2.83;;;;;;;;;;5070840;28;20028;-74
2022/10/24 01:31:09;;;;;;;8.35;2.50;;;;;;;;;;5072433;28;20378;-75
2022/10/24 01:33:38;;;;;;;12.65;3.25;;;;;;;;;;5072138;28;20062;-75
2022/10/24 01:36:07;;;;;;;9.32;3.38;;;;;;;;;;5071725;28;20028;-73
2022/10/24 01:38:41;;;;;;;7.00;3.10;;;;;;;;;;5074604;28;20116;-73
2022/10/24 01:41:19;;;;;;;9.35;3.25;;;;;;;;;;5076092;28;20439;-75
2022/10/24 01:43:48;;;;;;;11.02;2.90;;;;;;;;;;5075447;28;20504;-75
2022/10/24 01:46:34;;;;;;;8.93;3.75;;;;;;;;;;5075862;28;20540;-75
2022/10/24 01:49:09;;;;;;;7.30;2.70;;;;;;;;;;5075975;28;20029;-75
2022/10/24 01:51:36;;;;;;;11.40;3.53;;;;;;;;;;5076038;28;20096;-75
2022/10/24 01:54:03;;;;;;;11.45;2.97;;;;;;;;;;5076523;28;20028;-74
2022/10/24 01:56:29;;;;;;;11.23;3.08;;;;;;;;;;5076957;28;20052;-75
2022/10/24 01:59:24;;;;;;;10.32;3.13;;;;;;;;;;5078811;28;20078;-74
2022/10/24 02:01:50;;;;;;;;;;;;;;;;;;5077531;28;20083;-73
2022/10/24 02:04:16;;;;;;;13.00;3.30;;;;;;;;;;5099743;28;19955;-74
2022/10/24 02:06:42;;;;;;;10.25;2.80;;;;;;;;;;5100018;28;20044;-74
2022/10/24 02:09:14;;;;;;;7.10;3.17;;;;;;;;;;5094396;28;20294;-73
2022/10/24 02:11:41;;;;;;;12.52;3.60;;;;;;;;;;5096623;28;20071;-74
2022/10/24 02:14:16;;;;;;;7.65;3.03;;;;;;;;;;5093677;28;20332;-74
2022/10/24 02:16:42;;;;;;;10.27;3.72;;;;;;;;;;5076718;28;20028;-74
2022/10/24 02:19:09;;;;;;;6.60;3.10;;;;;;;;;;5075306;28;20449;-75
2022/10/24 02:21:37;;;;;;;10.90;3.47;;;;;;;;;;5075368;28;20021;-74
2022/10/24 02:24:11;;;;;;;12.75;3.30;;;;;;;;;;5075305;28;20025;-74
2022/10/24 02:26:42;;;;;;;9.30;3.17;;;;;;;;;;5075303;28;20531;-75
2022/10/24 02:29:11;;;;;;;11.85;3.50;;;;;;;;;;5075643;28;20103;-75
2022/10/24 02:31:40;;;;;;;14.82;3.15;;;;;;;;;;5075676;28;20024;-75
2022/10/24 02:34:07;;;;;;;11.30;3.33;;;;;;;;;;5075621;28;20024;-74
2022/10/24 02:36:34;;;;;;;11.38;2.92;;;;;;;;;;5075320;28;20025;-75
2022/10/24 02:39:02;;;;;;;15.98;2.92;;;;;;;;;;5075044;28;20032;-75
2022/10/24 02:41:29;;;;;;;11.35;3.10;;;;;;;;;;5074897;28;20027;-74
2022/10/24 02:43:56;;;;;;;15.32;3.28;;;;;;;;;;5075389;28;20028;-74
2022/10/24 02:46:22;;;;;;;11.43;3.40;;;;;;;;;;5073516;28;20016;-74
2022/10/24 02:48:51;;;;;;;10.35;3.17;;;;;;;;;;5074666;28;20086;-75
2022/10/24 02:51:17;;;;;;;8.93;3.38;;;;;;;;;;5074792;28;20032;-75
2022/10/24 02:53:43;;;;;;;16.08;3.85;;;;;;;;;;5074674;28;20390;-75
2022/10/24 02:56:09;;;;;;;6.90;3.03;;;;;;;;;;5074551;28;20031;-75
2022/10/24 02:58:35;;;;;;;10.23;3.40;;;;;;;;;;5074767;28;20029;-74
2022/10/24 03:01:01;;;;;;;18.25;3.80;;;;;;;;;;5074698;28;20023;-75
2022/10/24 03:03:27;;;;;;;14.93;3.40;;;;;;;;;;5076248;28;20500;-76
2022/10/24 03:05:53;;;;;;;12.50;3.38;;;;;;;;;;5074899;28;20465;-75
2022/10/24 03:08:19;;;;;;;9.73;3.25;;;;;;;;;;5073060;28;20028;-74
2022/10/24 03:10:45;;;;;;;16.83;3.25;;;;;;;;;;5076280;28;20044;-75
2022/10/24 03:13:11;;;;;;;6.00;2.90;;;;;;;;;;5074411;28;20107;-74
2022/10/24 03:15:37;;;;;;;13.25;3.30;;;;;;;;;;5074271;28;20056;-74
2022/10/24 03:18:03;;;;;;;9.85;3.90;;;;;;;;;;5075231;28;20020;-74
2022/10/24 03:20:28;;;;;;;11.93;3.90;;;;;;;;;;5074185;28;20023;-75
2022/10/24 03:22:54;;;;;;;17.73;3.72;;;;;;;;;;5074473;28;20029;-75
2022/10/24 03:25:20;;;;;;;18.73;4.13;;;;;;;;;;5074344;28;20036;-75
2022/10/24 03:27:46;;;;;;;13.05;3.58;;;;;;;;;;5074275;28;20107;-75
2022/10/24 03:30:12;;;;;;;7.53;3.13;;;;;;;;;;5074552;28;20024;-75
2022/10/24 03:32:38;;;;;;;8.82;3.35;;;;;;;;;;5074036;28;20020;-74
2022/10/24 03:35:04;;;;;;;8.68;3.50;;;;;;;;;;5074072;28;20501;-75
2022/10/24 03:37:30;;;;;;;14.18;3.67;;;;;;;;;;5073848;28;20556;-75
2022/10/24 03:39:57;;;;;;;11.30;3.40;;;;;;;;;;5074128;28;20025;-74
2022/10/24 03:42:23;;;;;;;15.63;4.35;;;;;;;;;;5073793;28;20646;-75
2022/10/24 03:44:49;;;;;;;14.02;3.90;;;;;;;;;;5074036;28;20020;-74
2022/10/24 03:47:15;;;;;;;9.77;3.88;;;;;;;;;;5073812;28;20085;-76
2022/10/24 03:49:40;;;;;;;8.00;3.58;;;;;;;;;;5073983;28;20055;-73
2022/10/24 03:52:06;;;;;;;12.45;3.55;;;;;;;;;;5074108;28;20450;-75
2022/10/24 03:54:33;;;;;;;17.10;4.05;;;;;;;;;;5074206;28;20484;-75
2022/10/24 03:56:59;;;;;;;12.05;3.83;;;;;;;;;;5075710;28;20100;-75
2022/10/24 03:59:25;;;;;;;18.55;4.13;;;;;;;;;;5086287;28;20107;-75
2022/10/24 04:01:51;;;;;;;18.80;4.97;;;;;;;;;;5087359;28;20036;-74
2022/10/24 04:04:17;;;;;;;17.80;5.63;;;;;;;;;;5084631;28;20024;-74
2022/10/24 04:06:43;;;;;;;18.10;5.38;;;;;;;;;;5088715;28;20036;-75
2022/10/24 04:09:09;;;;;;;13.70;4.40;;;;;;;;;;5085045;28;20050;-73
2022/10/24 04:11:35;;;;;;;9.63;4.65;;;;;;;;;;5088287;28;20092;-74
2022/10/24 04:14:01;;;;;;;9.57;3.97;;;;;;;;;;5085731;28;20032;-74
2022/10/24 04:16:27;;;;;;;12.55;3.60;;;;;;;;;;5077638;28;20030;-75
2022/10/24 04:18:53;;;;;;;18.90;4.97;;;;;;;;;;5083811;28;20027;-75
2022/10/24 04:21:19;;;;;;;17.10;4.07;;;;;;;;;;5088695;28;20036;-75
2022/10/24 04:23:45;;;;;;;12.30;4.20;;;;;;;;;;5086314;28;20051;-74
2022/10/24 04:26:13;;;;;;;14.68;3.80;;;;;;;;;;5079762;28;20028;-73
2022/10/24 04:28:39;;;;;;;21.10;4.22;;;;;;;;;;5082791;28;20008;-74
2022/10/24 04:31:06;;;;;;;12.93;4.32;;;;;;;;;;5098168;28;20050;-73
2022/10/24 04:33:31;;;;;;;10.43;3.95;;;;;;;;;;5094560;28;20033;-76
2022/10/24 04:35:58;;;;;;;9.38;3.65;;;;;;;;;;5077332;28;20036;-75
2022/10/24 04:38:24;;;;;;;17.73;4.03;;;;;;;;;;5073779;28;20116;-75
2022/10/24 04:40:52;;;;;;;14.00;4.15;;;;;;;;;;5073574;28;20132;-75
2022/10/24 04:43:18;;;;;;;15.40;4.50;;;;;;;;;;5073546;28;20029;-75
2022/10/24 04:45:44;;;;;;;13.27;4.32;;;;;;;;;;5072468;28;20028;-74
2022/10/24 04:48:10;;;;;;;16.25;4.55;;;;;;;;;;5073114;28;20031;-74
2022/10/24 04:50:37;;;;;;;22.73;4.40;;;;;;;;;;5075637;28;20090;-74
2022/10/24 04:53:03;;;;;;;14.70;4.20;;;;;;;;;;5076187;28;20036;-75
2022/10/24 04:55:29;;;;;;;20.95;4.35;;;;;;;;;;5072591;28;20081;-74
2022/10/24 04:57:55;;;;;;;11.65;4.32;;;;;;;;;;5071067;28;20024;-74
2022/10/24 05:00:21;;;;;;;12.75;3.80;;;;;;;;;;5072930;28;20392;-75
2022/10/24 05:02:47;;;;;;;11.15;4.28;;;;;;;;;;5072216;28;20386;-74
2022/10/24 05:05:13;;;;;;;13.93;4.20;;;;;;;;;;5072396;28;20028;-76
2022/10/24 05:07:39;;;;;;;12.45;5.10;;;;;;;;;;5072359;28;20289;-76
2022/10/24 05:10:05;;;;;;;18.10;4.57;;;;;;;;;;5072849;28;20033;-75
2022/10/24 05:12:31;;;;;;;10.50;3.92;;;;;;;;;;5076419;28;20059;-76
2022/10/24 05:14:57;;;;;;;18.20;6.57;;;;;;;;;;5078751;28;20040;-75
2022/10/24 05:17:23;;;;;;;13.45;4.22;;;;;;;;;;5076822;28;20402;-75
2022/10/24 05:19:49;;;;;;;9.55;3.90;;;;;;;;;;5073403;28;20021;-75
2022/10/24 05:22:15;;;;;;;10.73;4.32;;;;;;;;;;5073715;28;20074;-74
2022/10/24 05:24:41;;;;;;;15.27;4.60;;;;;;;;;;5072801;28;20074;-74
2022/10/24 05:27:07;;;;;;;16.33;4.70;;;;;;;;;;5072954;28;20060;-76
2022/10/24 05:29:33;;;;;;;13.88;4.18;;;;;;;;;;5073573;28;20024;-75
2022/10/24 05:31:59;;;;;;;25.67;5.05;;;;;;;;;;5071447;28;20461;-75
2022/10/24 05:34:25;;;;;;;25.70;4.82;;;;;;;;;;5070974;28;20032;-74
2022/10/24 05:36:51;;;;;;;15.77;4.28;;;;;;;;;;5072744;28;20032;-76
2022/10/24 05:39:17;;;;;;;13.80;4.25;;;;;;;;;;5071801;28;20028;-76
2022/10/24 05:41:43;;;;;;;14.70;4.50;;;;;;;;;;5074984;28;20028;-75
2022/10/24 05:44:11;;;;;;;19.05;4.13;;;;;;;;;;5070979;28;20025;-74
2022/10/24 05:46:37;;;;;;;15.40;4.03;;;;;;;;;;5072094;28;20431;-74
2022/10/24 05:49:03;;;;;;;17.45;4.05;;;;;;;;;;5072463;28;20033;-75
2022/10/24 05:51:29;;;;;;;18.27;3.70;;;;;;;;;;5072234;28;20029;-74
2022/10/24 05:53:55;;;;;;;16.27;3.53;;;;;;;;;;5073221;28;20444;-75
2022/10/24 05:56:21;;;;;;;25.27;4.20;;;;;;;;;;5073310;28;20536;-75
2022/10/24 05:58:47;;;;;;;13.93;3.50;;;;;;;;;;5073168;28;20024;-76
2022/10/24 06:01:13;;;;;;;17.58;3.83;;;;;;;;;;5073333;28;20024;-74
2022/10/24 06:03:39;;;;;;;19.88;4.20;;;;;;;;;;5072148;28;20484;-75
2022/10/24 06:06:06;;;;;;;15.88;4.70;;;;;;;;;;5072286;28;20025;-75
2022/10/24 06:08:33;;;;;;;21.13;3.72;;;;;;;;;;5074283;28;20032;-74
2022/10/24 06:10:59;;;;;;;33.90;3.92;;;;;;;;;;5076774;28;20101;-73
2022/10/24 06:13:25;;;;;;;11.82;3.63;;;;;;;;;;5076404;28;20399;-76
2022/10/24 06:15:51;;;;;;;12.38;3.83;;;;;;;;;;5071642;28;20393;-74
2022/10/24 06:18:17;;;;;;;13.55;3.72;;;;;;;;;;5072794;28;20031;-74
2022/10/24 06:20:43;;;;;;;15.93;3.90;;;;;;;;;;5072253;28;20021;-75
2022/10/24 06:23:09;;;;;;;13.52;3.47;;;;;;;;;;5071464;28;20012;-74
2022/10/24 06:25:35;;;;;;;12.25;3.90;;;;;;;;;;5075047;28;20029;-75
2022/10/24 06:28:01;;;;;;;16.17;4.05;;;;;;;;;;5075758;28;20081;-74
2022/10/24 06:30:27;;;;;;;7.97;3.85;;;;;;;;;;5075358;28;20029;-74
2022/10/24 06:32:53;;;;;;;21.20;4.25;;;;;;;;;;5078134;28;20465;-74
2022/10/24 06:35:19;;;;;;;15.68;3.72;;;;;;;;;;5076732;28;20384;-74
2022/10/24 06:37:45;;;;;;;15.00;4.10;;;;;;;;;;5075344;28;20036;-76
2022/10/24 06:40:12;;;;;;;22.58;3.97;;;;;;;;;;5075615;28;20355;-75
2022/10/24 06:42:37;;;;;;;20.98;3.70;;;;;;;;;;5080288;28;20025;-75
2022/10/24 06:45:04;;;;;;;15.48;4.35;;;;;;;;;;5074437;28;20112;-74
2022/10/24 06:47:30;;;;;;;18.40;4.43;;;;;;;;;;5081035;28;20016;-73
2022/10/24 06:49:56;;;;;;;14.70;3.65;;;;;;;;;;5089936;28;20020;-74
2022/10/24 06:52:22;;;;;;;15.98;4.30;;;;;;;;;;5087224;28;20117;-74
2022/10/24 06:54:48;;;;;;;16.92;4.05;;;;;;;;;;5087464;28;20032;-74
2022/10/24 06:57:14;;;;;;;11.20;4.55;;;;;;;;;;5082578;28;20025;-75
2022/10/24 06:59:40;;;;;;;21.15;5.00;;;;;;;;;;5077394;28;20039;-75
2022/10/24 07:02:06;;;;;;;10.93;4.38;;;;;;;;;;5076472;28;20094;-76
2022/10/24 07:04:32;;;;;;;16.98;4.72;;;;;;;;;;5075247;28;20024;-75
2022/10/24 07:06:58;;;;;;;23.65;5.00;;;;;;;;;;5076182;28;20021;-76
2022/10/24 07:09:24;;;;;;;17.27;4.45;;;;;;;;;;5075665;28;20048;-75
2022/10/24 07:11:50;;;;;;;16.75;5.60;;;;;;;;;;5111984;22;20423;-72
2022/10/24 07:14:16;;;;;;;28.27;6.00;;;;;;;;;;5097836;28;20666;-73
2022/10/24 07:16:42;;;;;;;13.48;4.50;;;;;;;;;;5080047;28;20016;-73
2022/10/24 07:19:08;;;;;;;24.92;8.50;;;;;;;;;;5097637;28;20480;-71
2022/10/24 07:21:34;;;;;;;20.08;5.22;;;;;;;;;;5098141;28;20024;-72
2022/10/24 07:24:00;;;;;;;15.93;4.93;;;;;;;;;;5096394;28;20468;-73
2022/10/24 07:26:27;;;;;;;20.50;4.72;;;;;;;;;;5096634;28;20025;-72
2022/10/24 07:28:54;;;;;;;18.08;3.83;;;;;;;;;;5095857;28;20540;-72
2022/10/24 07:31:21;;;;;;;14.88;3.97;;;;;;;;;;5097339;28;20032;-73
2022/10/24 07:33:47;;;;;;;15.10;3.97;;;;;;;;;;5097591;28;20024;-72
2022/10/24 07:36:17;;;;;;;18.60;3.83;;;;;;;;;;5095760;28;20028;-73
2022/10/24 07:38:43;;;;;;;15.50;3.30;;;;;;;;;;5095991;28;20020;-73
2022/10/24 07:41:09;;;;;;;14.95;3.83;;;;;;;;;;5100205;28;20043;-72
2022/10/24 07:43:35;;;;;;;10.23;3.55;;;;;;;;;;5097248;28;20472;-73
2022/10/24 07:46:05;;;;;;;16.90;3.30;;;;;;;;;;5094637;28;20031;-72
2022/10/24 07:48:30;;;;;;;24.27;3.60;;;;;;;;;;5094982;28;20028;-73
2022/10/24 07:50:56;;;;;;;14.32;2.97;;;;;;;;;;5095354;28;20030;-75
2022/10/24 07:53:24;;;;;;;14.20;3.65;;;;;;;;;;5095160;28;20091;-73
2022/10/24 07:55:50;;;;;;;12.60;3.67;;;;;;;;;;5095424;28;20103;-72
2022/10/24 07:58:16;;;;;;;10.32;3.38;;;;;;;;;;5095328;28;20103;-72
2022/10/24 08:00:42;;;;;;;10.85;3.30;;;;;;;;;;5077792;28;20476;-74
2022/10/24 08:03:08;;;;;;;13.93;3.00;;;;;;;;;;5096129;28;20471;-73
2022/10/24 08:05:34;;;;;;;12.38;2.88;;;;;;;;;;5096329;28;20045;-73
2022/10/24 08:08:00;;;;;;;14.52;3.60;;;;;;;;;;5096179;28;20165;-73
2022/10/24 08:10:26;;;;;;;16.27;7.30;;;;;;;;;;5097396;28;20035;-73
2022/10/24 08:12:52;;;;;;;25.20;3.28;;;;;;;;;;5096562;28;20032;-72
2022/10/24 08:15:18;;;;;;;11.10;2.60;;;;;;;;;;5095654;28;20032;-72
2022/10/24 08:17:44;;;;;;;13.50;3.17;;;;;;;;;;5077497;28;20039;-74
2022/10/24 08:20:10;;;;;;;16.00;3.38;;;;;;;;;;5095919;28;20025;-72
2022/10/24 08:22:36;;;;;;;17.85;4.60;;;;;;;;;;5095296;28;20024;-73
2022/10/24 08:25:04;;;;;;;21.80;3.08;;;;;;;;;;5076719;28;20365;-72
2022/10/24 08:27:30;;;;;;;7.75;2.47;;;;;;;;;;5094575;28;20508;-72
2022/10/24 08:29:56;;;;;;;10.80;2.80;;;;;;;;;;5095119;28;20032;-71
2022/10/24 08:32:22;;;;;;;15.93;3.03;;;;;;;;;;5095470;28;20020;-73
2022/10/24 08:34:48;;;;;;;12.25;3.05;;;;;;;;;;5094949;28;20467;-72
2022/10/24 08:37:14;;;;;;;11.90;2.50;;;;;;;;;;5093923;28;20032;-72
2022/10/24 08:39:40;;;;;;;17.48;3.10;;;;;;;;;;5096292;28;20024;-73
2022/10/24 08:42:07;;;;;;;19.35;3.13;;;;;;;;;;5098808;28;20118;-72
2022/10/24 08:44:41;;;;;;;12.13;2.80;;;;;;;;;;5096704;28;20028;-73
2022/10/24 08:47:26;;;;;;;13.17;2.60;;;;;;;;;;5094068;28;20034;-73
2022/10/24 08:49:52;;;;;;;13.60;2.75;;;;;;;;;;5094681;28;20349;-72
2022/10/24 08:52:30;;;;;;;16.15;4.60;;;;;;;;;;5094409;28;20496;-72
2022/10/24 08:54:57;;;;;;;19.20;5.20;;;;;;;;;;5094820;28;20028;-72
2022/10/24 08:57:25;;;;;;;16.15;3.83;;;;;;;;;;5096117;28;20089;-73
2022/10/24 08:59:53;;;;;;;16.30;3.30;;;;;;;;;;5094029;28;20430;-73
2022/10/24 09:02:24;;;;;;;14.90;3.95;;;;;;;;;;5093640;28;20389;-73
2022/10/24 09:04:55;;;;;;;15.88;2.72;;;;;;;;;;5095624;28;20020;-72
2022/10/24 09:07:22;;;;;;;16.50;3.33;;;;;;;;;;5109187;28;20016;-74
2022/10/24 09:09:49;;;;;;;9.35;2.58;;;;;;;;;;5103830;28;20044;-72
2022/10/24 09:12:17;;;;;;;12.02;3.00;;;;;;;;;;5092879;28;20131;-72
2022/10/24 09:14:44;;;;;;;15.27;2.47;;;;;;;;;;5093604;28;20028;-71
2022/10/24 09:17:16;;;;;;;9.05;2.40;;;;;;;;;;5093402;28;20031;-73
2022/10/24 09:19:46;;;;;;;16.25;2.88;;;;;;;;;;5093696;28;20024;-73
2022/10/24 09:22:12;;;;;;;11.98;2.63;;;;;;;;;;5092944;28;20080;-71
2022/10/24 09:24:44;;;;;;;13.02;3.08;;;;;;;;;;5092844;28;20024;-71
2022/10/24 09:27:28;;;;;;;15.23;2.67;;;;;;;;;;5092686;28;20016;-72
2022/10/24 09:29:54;;;;;;;19.20;3.35;;;;;;;;;;5093381;28;20024;-73
2022/10/24 09:32:22;;;;;;;13.77;2.85;;;;;;;;;;5092849;28;20487;-73
2022/10/24 09:34:48;;;;;;;14.63;2.78;;;;;;;;;;5093101;28;20020;-72
2022/10/24 09:37:30;;;;;;;13.30;3.50;;;;;;;;;;5093178;28;20028;-72
2022/10/24 09:40:08;;;;;;;18.60;3.13;;;;;;;;;;5095872;28;20032;-72
2022/10/24 09:42:36;;;;;;;11.20;2.90;;;;;;;;;;5093536;28;20396;-73
2022/10/24 09:45:16;;;;;;;14.27;3.00;;;;;;;;;;5096785;28;20087;-72
2022/10/24 09:47:42;;;;;;;12.10;3.13;;;;;;;;;;5093636;28;20465;-72
2022/10/24 09:50:18;;;;;;;12.35;3.40;;;;;;;;;;5093617;28;20334;-72
2022/10/24 09:52:48;;;;;;;17.02;2.85;;;;;;;;;;5094543;28;20103;-72
2022/10/24 09:55:19;;;;;;;11.40;2.58;;;;;;;;;;5095502;28;20049;-72
2022/10/24 09:57:45;;;;;;;13.27;2.38;;;;;;;;;;5097411;28;20024;-73
2022/10/24 10:00:23;;;;;;;18.92;3.05;;;;;;;;;;5084916;28;20379;-72
2022/10/24 10:03:00;;;;;;;12.93;2.30;;;;;;;;;;5100267;28;20028;-72
2022/10/24 10:05:27;;;;;;;18.67;2.97;;;;;;;;;;5099611;28;20099;-72
2022/10/24 10:07:53;;;;;;;16.83;5.65;;;;;;;;;;5099580;28;20085;-72
2022/10/24 10:10:24;;;;;;;12.93;4.70;;;;;;;;;;5099340;28;20024;-73
2022/10/24 10:12:58;;;;;;;16.40;5.88;;;;;;;;;;5081348;28;20036;-72
2022/10/24 10:15:25;;;;;;;13.27;2.95;;;;;;;;;;5098466;28;20047;-71
2022/10/24 10:17:52;;;;;;;15.88;2.92;;;;;;;;;;5101276;28;20541;-72
2022/10/24 10:20:37;;;;;;;16.48;3.20;;;;;;;;;;5080260;28;20110;-72
2022/10/24 10:23:23;;;;;;;12.15;2.28;;;;;;;;;;5083689;28;20138;-73
2022/10/24 10:25:49;;;;;;;16.27;2.30;;;;;;;;;;5102171;28;20016;-73
2022/10/24 10:28:19;;;;;;;11.07;2.80;;;;;;;;;;5100776;28;20048;-75
2022/10/24 10:30:49;;;;;;;15.18;2.40;;;;;;;;;;5098871;28;20031;-72
2022/10/24 10:33:19;;;;;;;12.25;2.80;;;;;;;;;;5103857;28;20494;-72
2022/10/24 10:36:01;;;;;;;11.82;2.58;;;;;;;;;;5081993;28;20043;-72
2022/10/24 10:38:30;;;;;;;12.57;2.30;;;;;;;;;;5100390;28;20024;-73
2022/10/24 10:41:00;;;;;;;14.27;2.20;;;;;;;;;;5098875;28;20365;-74
2022/10/24 10:43:33;;;;;;;11.02;2.47;;;;;;;;;;5099242;28;20057;-73
2022/10/24 10:46:10;;;;;;;11.85;2.20;;;;;;;;;;5081803;28;20032;-74
2022/10/24 10:48:40;;;;;;;26.08;3.05;;;;;;;;;;5081008;28;20024;-74
2022/10/24 10:51:11;;;;;;;18.50;2.80;;;;;;;;;;5095816;28;20038;-73
2022/10/24 10:53:56;;;;;;;9.05;2.35;;;;;;;;;;5095631;28;20032;-73
2022/10/24 10:56:31;;;;;;;13.40;2.70;;;;;;;;;;5095233;28;20020;-73
2022/10/24 10:59:15;;;;;;;9.13;3.00;;;;;;;;;;5095678;28;20032;-74
2022/10/24 11:01:41;;;;;;;18.15;2.50;;;;;;;;;;5095514;28;20081;-73
2022/10/24 11:04:13;;;;;;;14.48;2.95;;;;;;;;;;5095682;28;20024;-73
2022/10/24 11:06:57;;;;;;;15.68;2.60;;;;;;;;;;5096091;28;20016;-72
2022/10/24 11:09:27;;;;;;;13.52;3.03;;;;;;;;;;5097173;28;20032;-73
2022/10/24 11:12:04;;;;;;;8.00;2.38;;;;;;;;;;5094727;28;20038;-72
2022/10/24 11:14:32;;;;;;;23.02;2.88;;;;;;;;;;5095699;28;20088;-72
2022/10/24 11:17:02;;;;;;;15.88;2.63;;;;;;;;;;5096285;28;20125;-74
2022/10/24 11:19:33;;;;;;;12.82;2.50;;;;;;;;;;5097231;28;20023;-72
2022/10/24 11:22:02;;;;;;;13.60;2.58;;;;;;;;;;5099245;28;20557;-72
2022/10/24 11:24:31;;;;;;;9.63;2.58;;;;;;;;;;5098591;28;20031;-73
2022/10/24 11:27:03;;;;;;;9.00;2.13;;;;;;;;;;5095595;28;20024;-71
2022/10/24 11:29:38;;;;;;;17.60;2.60;;;;;;;;;;5095142;28;20085;-72
2022/10/24 11:32:24;;;;;;;6.90;2.00;;;;;;;;;;5094819;28;20066;-72
2022/10/24 11:34:59;;;;;;;16.15;2.38;;;;;;;;;;5095074;28;20032;-73
2022/10/24 11:37:32;;;;;;;14.73;2.78;;;;;;;;;;5076925;28;20035;-72
2022/10/24 11:39:58;;;;;;;13.32;2.03;;;;;;;;;;5076750;28;20036;-71
2022/10/24 11:42:36;;;;;;;13.77;2.33;;;;;;;;;;5095375;28;20073;-73
2022/10/24 11:45:12;;;;;;;14.27;3.40;;;;;;;;;;5105707;28;20016;-72
2022/10/24 11:47:44;;;;;;;11.45;2.50;;;;;;;;;;5085545;28;20492;-71
2022/10/24 11:50:14;;;;;;;11.57;2.05;;;;;;;;;;5101790;28;20028;-72
2022/10/24 11:52:46;;;;;;;8.25;2.35;;;;;;;;;;5097849;28;20028;-73
2022/10/24 11:55:20;;;;;;;15.50;1.83;;;;;;;;;;5078514;28;20038;-72
2022/10/24 11:57:48;;;;;;;12.32;2.42;;;;;;;;;;5095957;28;20027;-72
2022/10/24 12:00:23;;;;;;;10.13;2.00;;;;;;;;;;5095431;28;20028;-72
2022/10/24 12:03:08;;;;;;;13.35;2.05;;;;;;;;;;5077141;28;20372;-72
2022/10/24 12:05:43;;;;;;;13.95;2.13;;;;;;;;;;5094532;28;20444;-72
2022/10/24 12:08:18;;;;;;;11.52;2.70;;;;;;;;;;5094252;28;20035;-74
2022/10/24 12:11:02;;;;;;;14.45;2.03;;;;;;;;;;5094427;28;20420;-74
2022/10/24 12:13:47;;;;;;;13.48;1.92;;;;;;;;;;5094569;28;20374;-73
2022/10/24 12:16:24;;;;;;;15.98;2.83;;;;;;;;;;5093727;28;20039;-73
2022/10/24 12:18:51;;;;;;;16.08;2.15;;;;;;;;;;5095391;28;20032;-72
2022/10/24 12:21:19;;;;;;;12.55;2.35;;;;;;;;;;5095544;28;20031;-73
2022/10/24 12:23:55;;;;;;;16.85;2.80;;;;;;;;;;5094471;28;20249;-71
2022/10/24 12:26:26;;;;;;;10.70;2.13;;;;;;;;;;5096523;28;20027;-73
2022/10/24 12:28:57;;;;;;;8.70;1.95;;;;;;;;;;5097199;28;20028;-73
2022/10/24 12:31:33;;;;;;;13.20;2.35;;;;;;;;;;5096485;28;20492;-72
2022/10/24 12:34:17;;;;;;;8.80;2.33;;;;;;;;;;5082719;28;20039;-72
2022/10/24 12:37:02;;;;;;;6.63;1.92;;;;;;;;;;5098725;28;20028;-73
2022/10/24 12:39:29;;;;;;;14.25;1.95;;;;;;;;;;5095930;28;20039;-72
2022/10/24 12:41:55;;;;;;;10.90;1.73;;;;;;;;;;5095567;28;20103;-73
2022/10/24 12:44:33;;;;;;;11.68;1.70;;;;;;;;;;5096195;28;20024;-73
2022/10/24 12:47:00;;;;;;;13.35;2.10;;;;;;;;;;5095707;28;20028;-73
2022/10/24 12:49:28;;;;;;;16.67;2.22;;;;;;;;;;5101805;28;20020;-72
2022/10/24 12:51:55;;;;;;;6.82;1.83;;;;;;;;;;5095910;28;20031;-73
2022/10/24 12:54:40;;;;;;;12.00;1.90;;;;;;;;;;5096401;28;20032;-72
2022/10/24 12:57:06;;;;;;;14.38;2.05;;;;;;;;;;5097590;28;20084;-73
2022/10/24 12:59:32;;;;;;;13.02;2.20;;;;;;;;;;5096727;28;20065;-72
2022/10/24 13:02:13;;;;;;;12.10;1.80;;;;;;;;;;5096146;28;20401;-73
2022/10/24 13:04:43;;;;;;;8.65;1.58;;;;;;;;;;5094957;28;20068;-73
2022/10/24 13:07:19;;;;;;;16.90;1.67;;;;;;;;;;5076845;28;20491;-74
2022/10/24 13:10:04;;;;;;;14.13;2.45;;;;;;;;;;5095042;28;20023;-72
2022/10/24 13:12:33;;;;;;;8.82;1.83;;;;;;;;;;5100188;28;20462;-75
2022/10/24 13:14:59;;;;;;;7.78;1.17;;;;;;;;;;5103425;28;20020;-74
2022/10/24 13:17:39;;;;;;;9.68;2.20;;;;;;;;;;5080608;28;20032;-73
2022/10/24 13:20:14;;;;;;;11.18;1.95;;;;;;;;;;5096187;28;20503;-73
2022/10/24 13:22:40;;;;;;;13.18;2.35;;;;;;;;;;5097103;28;20108;-75
2022/10/24 13:25:20;;;;;;;16.27;2.45;;;;;;;;;;5095581;28;20217;-75
2022/10/24 13:28:06;;;;;;;14.57;2.28;;;;;;;;;;5099029;28;20027;-75
2022/10/24 13:30:32;;;;;;;10.55;2.03;;;;;;;;;;5094254;28;20465;-76
2022/10/24 13:33:17;;;;;;;7.88;2.03;;;;;;;;;;5096231;28;20020;-74
2022/10/24 13:35:43;;;;;;;8.73;2.20;;;;;;;;;;5095702;28;20020;-73
2022/10/24 13:38:09;;;;;;;12.27;2.33;;;;;;;;;;5094045;28;20077;-75
2022/10/24 13:40:35;;;;;;;11.15;3.15;;;;;;;;;;5094012;28;20107;-74
2022/10/24 13:43:14;;;;;;;11.68;2.20;;;;;;;;;;5100313;28;20020;-73
2022/10/24 13:45:45;;;;;;;15.77;2.38;;;;;;;;;;5096290;28;20048;-73
2022/10/24 13:48:16;;;;;;;13.15;2.50;;;;;;;;;;5096414;28;20477;-75
2022/10/24 13:50:51;;;;;;;15.38;2.22;;;;;;;;;;5093292;28;20393;-73
2022/10/24 13:53:20;;;;;;;14.38;2.35;;;;;;;;;;5093442;28;20051;-74
2022/10/24 13:55:47;;;;;;;8.90;2.40;;;;;;;;;;5092834;28;20083;-74
2022/10/24 13:58:21;;;;;;;18.70;3.33;;;;;;;;;;5093184;28;20020;-75
2022/10/24 14:00:52;;;;;;;13.45;2.78;;;;;;;;;;5092994;28;20020;-74
2022/10/24 14:03:19;;;;;;;14.32;2.65;;;;;;;;;;5094942;28;20024;-74
2022/10/24 14:05:51;;;;;;;13.10;2.25;;;;;;;;;;5093474;28;20028;-77
2022/10/24 14:08:43;;;;;;;20.60;2.60;;;;;;;;;;5093634;28;20031;-75
2022/10/24 14:11:17;;;;;;;13.50;2.83;;;;;;;;;;5071593;28;20040;-75
2022/10/24 14:13:45;;;;;;;15.43;2.87;;;;;;;;;;5096099;28;20039;-74
2022/10/24 14:16:11;;;;;;;13.65;2.45;;;;;;;;;;5093753;28;20055;-73
2022/10/24 14:18:38;;;;;;;12.55;2.25;;;;;;;;;;5096116;28;20032;-74
2022/10/24 14:21:04;;;;;;;12.73;1.90;;;;;;;;;;5096530;28;20357;-74
2022/10/24 14:23:34;;;;;;;9.48;2.03;;;;;;;;;;5096866;28;20495;-74
2022/10/24 14:26:01;;;;;;;13.52;3.00;;;;;;;;;;5078513;28;20024;-73
2022/10/24 14:28:29;;;;;;;14.68;2.60;;;;;;;;;;5094597;28;20503;-74
2022/10/24 14:30:56;;;;;;;11.77;2.00;;;;;;;;;;5093128;28;20123;-74
2022/10/24 14:33:24;;;;;;;12.02;2.10;;;;;;;;;;5099875;28;20028;-73
2022/10/24 14:35:50;;;;;;;12.05;2.10;;;;;;;;;;5094796;28;20020;-74
2022/10/24 14:38:17;;;;;;;12.85;2.53;;;;;;;;;;5079216;28;20111;-74
2022/10/24 14:40:44;;;;;;;18.58;2.35;;;;;;;;;;5094096;28;20020;-74
2022/10/24 14:43:13;;;;;;;12.70;2.58;;;;;;;;;;5093531;28;20024;-75
2022/10/24 14:45:39;;;;;;;9.07;2.10;;;;;;;;;;5095078;28;20031;-75